.
WxDataArchive / Data Records for 2013-06-21
2013-06-20 June 2013 2013-06-22

Data Records for Friday, 21 June 2013

Time	Temp	Chill	HIndex	Humid	Dewpt	 Wind 	HiWind	WindDir	Rain 	Barom 
-----	----	-----	------	-----	-----	------	------	-------	-----	----- 
00:00	69.6	69.6	69.6	77	62.1	0	0	---	0.00	30.138 
00:05	69.6	69.6	69.6	78	62.4	0	0	---	0.00	30.138 
00:10	69.4	69.4	69.4	78	62.2	0	0	---	0.00	30.138 
00:15	69.4	69.4	69.4	78	62.2	0	0	---	0.00	30.140 
00:20	69.3	69.3	69.3	79	62.5	0	0	---	0.00	30.140 
00:25	69.3	69.3	69.3	79	62.5	0	0	---	0.00	30.140 
00:30	69.1	69.1	69.1	79	62.3	0	0	---	0.00	30.146 
00:35	68.9	68.9	68.9	80	62.5	0	0	---	0.00	30.146 
00:40	68.9	68.9	68.9	80	62.5	0	0	---	0.00	30.146 
00:45	68.8	68.8	68.8	80	62.4	0	0	---	0.00	30.144 
00:50	68.8	68.8	68.8	80	62.4	0	0	---	0.00	30.144 
00:55	68.6	68.6	68.6	80	62.2	0	0	---	0.00	30.144 
01:00	68.4	68.4	68.4	80	62.0	0	0	---	0.00	30.144 
01:05	68.4	68.4	68.4	81	62.3	0	0	---	0.00	30.144 
01:10	68.3	68.3	68.3	81	62.2	0	0	---	0.00	30.144 
01:15	68.1	68.1	68.1	81	62.0	0	0	---	0.00	30.148 
01:20	67.8	67.8	67.8	81	61.7	0	0	---	0.00	30.148 
01:25	67.6	67.6	67.6	82	61.9	0	0	---	0.00	30.148 
01:30	67.4	67.4	67.4	82	61.7	0	0	---	0.00	30.148 
01:35	67.3	67.3	67.3	82	61.6	0	0	---	0.00	30.148 
01:40	67.3	67.3	67.3	82	61.6	0	0	---	0.00	30.148 
01:45	67.1	67.1	67.1	83	61.8	0	0	---	0.00	30.150 
01:50	67.1	67.1	67.1	83	61.8	0	0	---	0.00	30.150 
01:55	67.3	67.3	67.3	83	62.0	0	0	---	0.00	30.150 
02:00	67.3	67.3	67.3	83	62.0	0	0	---	0.00	30.151 
02:05	67.1	67.1	67.1	83	61.8	0	0	---	0.00	30.151 
02:10	67.1	67.1	67.1	83	61.8	0	0	---	0.00	30.151 
02:15	67.1	67.1	67.1	83	61.8	0	0	---	0.00	30.145 
02:20	66.9	66.9	66.9	83	61.6	0	0	---	0.00	30.145 
02:25	66.9	66.9	66.9	83	61.6	0	0	---	0.00	30.145 
02:30	66.8	66.8	66.8	84	61.8	0	0	---	0.00	30.144 
02:35	66.6	66.6	66.6	84	61.6	0	0	---	0.00	30.144 
02:40	66.6	66.6	66.6	84	61.6	0	0	---	0.00	30.144 
02:45	66.4	66.4	66.4	84	61.4	0	0	---	0.00	30.144 
02:50	66.3	66.3	66.3	84	61.3	0	0	---	0.00	30.144 
02:55	66.1	66.1	66.1	84	61.1	0	0	---	0.00	30.144 
03:00	66.0	66.0	66.0	85	61.4	0	0	---	0.00	30.146 
03:05	65.8	65.8	65.8	85	61.2	0	0	---	0.00	30.146 
03:10	65.6	65.6	65.6	85	61.0	0	0	---	0.00	30.146 
03:15	65.5	65.5	65.5	85	60.9	0	0	---	0.00	30.139 
03:20	65.3	65.3	65.3	85	60.7	0	0	---	0.00	30.139 
03:25	65.2	65.2	65.2	86	60.9	0	0	---	0.00	30.139 
03:30	65.2	65.2	65.2	86	60.9	0	0	---	0.00	30.139 
03:35	65.0	65.0	65.0	86	60.7	0	0	---	0.00	30.139 
03:40	64.8	64.8	64.8	87	60.8	0	0	---	0.00	30.139 
03:45	64.7	64.7	64.7	87	60.7	0	0	---	0.00	30.137 
03:50	64.5	64.5	64.5	87	60.5	0	0	---	0.00	30.137 
03:55	64.5	64.5	64.5	87	60.5	0	0	---	0.00	30.137 
04:00	64.3	64.3	64.3	88	60.7	0	0	---	0.00	30.135 
04:05	64.3	64.3	64.3	88	60.7	0	0	---	0.00	30.135 
04:10	64.2	64.2	64.2	88	60.6	0	0	---	0.00	30.135 
04:15	64.2	64.2	64.2	88	60.6	0	0	---	0.00	30.139 
04:20	64.0	64.0	64.0	88	60.4	0	0	---	0.00	30.139 
04:25	64.0	64.0	64.0	88	60.4	0	0	---	0.00	30.139 
04:30	64.0	64.0	64.0	88	60.4	0	0	---	0.00	30.138 
04:35	64.0	64.0	64.0	88	60.4	0	0	---	0.00	30.138 
04:40	64.0	64.0	64.0	88	60.4	0	0	---	0.00	30.138 
04:45	64.0	64.0	64.0	88	60.4	0	0	---	0.00	30.139 
04:50	64.0	64.0	64.0	88	60.4	0	0	---	0.00	30.139 
04:55	63.9	63.9	63.9	88	60.3	0	0	---	0.00	30.139 
05:00	63.9	63.9	63.9	88	60.3	0	0	---	0.00	30.137 
05:05	63.7	63.7	63.7	88	60.1	0	0	---	0.00	30.137 
05:10	63.5	63.5	63.5	88	59.9	0	0	---	0.00	30.137 
05:15	63.5	63.5	63.5	87	59.6	0	0	---	0.00	30.140 
05:20	63.5	63.5	63.5	87	59.6	0	0	---	0.00	30.140 
05:25	63.5	63.5	63.5	87	59.6	0	0	---	0.00	30.140 
05:30	63.4	63.4	63.4	87	59.5	0	0	---	0.00	30.142 
05:35	63.4	63.4	63.4	86	59.1	0	0	---	0.00	30.142 
05:40	63.4	63.4	63.4	86	59.1	0	0	---	0.00	30.142 
05:45	63.5	63.5	63.5	86	59.2	0	0	---	0.00	30.142 
05:50	63.5	63.5	63.5	86	59.2	0	0	---	0.00	30.142 
05:55	63.5	63.5	63.5	85	58.9	0	0	---	0.00	30.142 
06:00	63.5	63.5	63.5	85	58.9	0	0	---	0.00	30.142 
06:05	63.7	63.7	63.7	84	58.8	0	0	---	0.00	30.142 
06:10	63.7	63.7	63.7	84	58.8	0	0	---	0.00	30.142 
06:15	63.9	63.9	63.9	84	59.0	0	0	---	0.00	30.152 
06:20	63.9	63.9	63.9	84	59.0	0	0	---	0.00	30.152 
06:25	63.9	63.9	63.9	84	59.0	0	0	---	0.00	30.152 
06:30	63.9	63.9	63.9	84	59.0	0	0	---	0.00	30.153 
06:35	63.9	63.9	63.9	84	59.0	0	0	---	0.00	30.153 
06:40	63.9	63.9	63.9	84	59.0	0	0	---	0.00	30.153 
06:45	63.9	63.9	63.9	83	58.6	0	0	---	0.00	30.153 
06:50	64.0	64.0	64.0	83	58.7	0	0	---	0.00	30.153 
06:55	64.2	64.2	64.2	83	58.9	0	0	---	0.00	30.153 
07:00	64.2	64.2	64.2	83	58.9	0	0	---	0.00	30.156 
07:05	64.3	64.3	64.3	83	59.0	0	0	---	0.00	30.156 
07:10	64.7	64.7	64.7	82	59.1	0	1	45	0.00	30.156 
07:15	65.2	65.2	65.2	81	59.2	0	0	---	0.00	30.150 
07:20	65.8	65.8	65.8	79	59.1	0	1	45	0.00	30.150 
07:25	66.6	66.6	66.6	77	59.2	0	1	45	0.00	30.150 
07:30	67.3	67.3	67.3	75	59.1	0	1	45	0.00	30.145 
07:35	68.1	68.1	68.1	73	59.1	0	1	45	0.00	30.145 
07:40	68.8	68.8	68.8	72	59.4	0	1	45	0.00	30.145 
07:45	69.3	69.3	69.3	71	59.5	0	1	45	0.00	30.147 
07:50	69.8	69.8	69.8	69	59.2	0	1	45	0.00	30.147 
07:55	70.3	70.3	70.3	67	58.8	0	2	45	0.00	30.147 
08:00	70.8	70.8	70.8	66	58.9	0	2	45	0.00	30.149 
08:05	71.5	71.5	71.5	65	59.1	0	1	45	0.00	30.149 
08:10	71.8	71.8	71.8	64	59.0	0	2	45	0.00	30.149 
08:15	72.1	72.1	72.1	64	59.2	0	2	45	0.00	30.155 
08:20	72.5	72.5	72.5	62	58.7	0	1	45	0.00	30.155 
08:25	72.8	72.8	72.8	63	59.5	0	1	45	0.00	30.155 
08:30	73.2	73.2	73.2	62	59.4	0	1	45	0.00	30.164 
08:35	73.9	73.9	73.9	62	60.0	0	1	45	0.00	30.164 
08:40	74.4	74.4	74.4	58	58.6	0	1	45	0.00	30.164 
08:45	74.9	74.9	74.9	59	59.6	0	2	45	0.00	30.153 
08:50	75.8	75.8	77.9	60	60.9	0	1	45	0.00	30.153 
08:55	76.1	76.1	78.1	59	60.7	0	1	45	0.00	30.153 
09:00	76.3	76.3	78.3	56	59.4	0	2	45	0.00	30.162 
09:05	76.5	76.5	78.4	55	59.1	1	2	45	0.00	30.162 
09:10	76.7	76.7	78.5	55	59.3	0	1	45	0.00	30.162 
09:15	77.0	77.0	78.7	56	60.1	0	1	45	0.00	30.161 
09:20	77.6	77.6	79.2	55	60.1	0	2	45	0.00	30.161 
09:25	78.1	78.1	79.5	53	59.6	0	2	45	0.00	30.161 
09:30	78.6	78.6	79.8	52	59.5	1	4	45	0.00	30.148 
09:35	79.2	79.2	80.3	52	60.0	0	3	68	0.00	30.148 
09:40	79.8	79.8	80.6	50	59.5	0	2	68	0.00	30.148 
09:45	79.9	79.9	81.0	53	61.2	0	2	68	0.00	30.141 
09:50	80.5	80.5	81.2	49	59.6	1	5	68	0.00	30.141 
09:55	80.7	80.7	81.2	48	59.2	1	5	68	0.00	30.141 
10:00	80.9	80.9	81.5	49	59.9	0	2	68	0.00	30.132 
10:05	81.2	81.2	81.7	48	59.6	0	2	45	0.00	30.132 
10:10	81.4	81.4	81.8	47	59.2	1	3	45	0.00	30.132 
10:15	81.6	81.6	82.1	48	60.0	0	2	292	0.00	30.147 
10:20	82.4	82.4	82.7	47	60.1	1	3	292	0.00	30.147 
10:25	82.6	82.6	83.0	47	60.3	0	1	338	0.00	30.147 
10:30	83.0	83.0	83.2	46	60.1	0	2	0	0.00	30.145 
10:35	83.2	83.2	83.4	46	60.2	0	3	270	0.00	30.145 
10:40	83.0	83.0	82.8	43	58.2	1	3	270	0.00	30.145 
10:45	82.4	82.4	82.5	45	58.9	1	4	270	0.00	30.150 
10:50	82.2	82.2	82.1	44	58.1	1	5	270	0.00	30.150 
10:55	82.8	82.8	82.7	44	58.6	1	4	112	0.00	30.150 
11:00	83.4	83.4	83.0	42	57.9	1	3	112	0.00	30.149 
11:05	83.8	83.8	83.7	44	59.5	1	2	112	0.00	30.149 
11:10	84.0	84.0	83.4	41	57.7	1	3	112	0.00	30.149 
11:15	83.8	83.8	83.1	40	56.9	1	4	315	0.00	30.161 
11:20	84.0	84.0	83.3	40	57.0	1	5	270	0.00	30.161 
11:25	84.1	84.1	83.7	42	58.5	1	4	270	0.00	30.161 
11:30	84.7	84.7	84.0	40	57.7	1	5	68	0.00	30.164 
11:35	84.7	84.7	84.2	41	58.4	1	3	248	0.00	30.164 
11:40	85.1	85.1	85.4	45	61.3	0	3	270	0.00	30.164 
11:45	85.3	85.3	84.3	38	56.8	2	7	112	0.00	30.164 
11:50	85.1	85.1	84.1	38	56.6	1	2	112	0.00	30.164 
11:55	85.1	85.1	84.4	40	58.0	1	3	112	0.00	30.164 
12:00	85.1	85.1	84.3	39	57.3	1	2	112	0.00	30.164 
12:05	85.5	85.5	85.1	41	59.1	0	3	0	0.00	30.164 
12:10	85.5	85.5	85.1	41	59.1	1	3	315	0.00	30.164 
12:15	85.7	85.7	85.3	41	59.3	0	2	315	0.00	30.160 
12:20	85.9	85.9	85.3	40	58.7	1	3	90	0.00	30.160 
12:25	85.9	85.9	85.3	40	58.7	0	2	90	0.00	30.160 
12:30	85.5	85.5	84.3	37	56.2	1	2	22	0.00	30.150 
12:35	85.5	85.5	84.9	40	58.4	0	2	315	0.00	30.150 
12:40	85.9	85.9	84.6	36	55.8	1	3	0	0.00	30.150 
12:45	86.3	86.3	84.8	35	55.4	1	3	112	0.00	30.149 
12:50	86.5	86.5	84.8	34	54.8	1	3	112	0.00	30.149 
12:55	86.5	86.5	86.0	40	59.3	1	4	292	0.00	30.149 
13:00	86.5	86.5	84.8	34	54.8	1	4	90	0.00	30.144 
13:05	86.5	86.5	84.7	33	53.9	1	3	90	0.00	30.144 
13:10	86.7	86.7	85.2	35	55.7	1	5	90	0.00	30.144 
13:15	86.5	86.5	85.0	35	55.6	1	4	270	0.00	30.135 
13:20	86.7	86.7	85.1	34	54.9	1	5	112	0.00	30.135 
13:25	87.0	87.0	85.6	35	56.0	1	4	112	0.00	30.135 
13:30	87.2	87.2	85.2	32	53.7	1	5	90	0.00	30.134 
13:35	87.2	87.2	85.2	32	53.7	1	4	90	0.00	30.134 
13:40	87.0	87.0	85.4	34	55.2	1	4	315	0.00	30.134 
13:45	87.2	87.2	85.8	35	56.2	1	4	90	0.00	30.133 
13:50	87.2	87.2	85.2	32	53.7	1	4	112	0.00	30.133 
13:55	87.2	87.2	85.4	33	54.6	1	4	45	0.00	30.133 
14:00	87.0	87.0	85.2	33	54.4	1	3	292	0.00	30.133 
14:05	87.0	87.0	85.2	33	54.4	1	2	292	0.00	30.133 
14:10	87.2	87.2	86.2	37	57.7	0	2	0	0.00	30.133 
14:15	87.6	87.6	85.7	32	54.1	1	6	0	0.00	30.134 
14:20	87.8	87.8	86.3	34	55.9	1	3	270	0.00	30.134 
14:25	87.8	87.8	85.9	32	54.2	2	4	68	0.00	30.134 
14:30	87.6	87.6	86.0	34	55.7	1	3	292	0.00	30.131 
14:35	87.6	87.6	86.2	35	56.5	1	5	90	0.00	30.131 
14:40	87.4	87.4	86.7	38	58.6	1	3	292	0.00	30.131 
14:45	87.2	87.2	85.4	33	54.6	1	5	45	0.00	30.127 
14:50	87.2	87.2	85.4	33	54.6	1	3	270	0.00	30.127 
14:55	86.7	86.7	85.4	36	56.5	1	3	315	0.00	30.127 
15:00	87.0	87.0	85.8	36	56.8	1	4	90	0.00	30.123 
15:05	87.2	87.2	85.8	35	56.2	1	5	112	0.00	30.123 
15:10	87.2	87.2	85.8	35	56.2	1	2	112	0.00	30.123 
15:15	87.4	87.4	85.4	32	53.9	1	3	68	0.00	30.125 
15:20	87.4	87.4	86.0	35	56.3	0	2	270	0.00	30.125 
15:25	87.2	87.2	85.1	31	52.8	1	4	45	0.00	30.125 
15:30	87.2	87.2	85.1	31	52.8	0	2	45	0.00	30.122 
15:35	87.0	87.0	84.9	31	52.7	1	2	45	0.00	30.122 
15:40	87.2	87.2	85.4	33	54.6	1	5	68	0.00	30.122 
15:45	87.4	87.4	85.4	32	53.9	1	3	292	0.00	30.118 
15:50	87.2	87.2	85.2	32	53.7	1	3	90	0.00	30.118 
15:55	86.5	86.5	84.7	33	53.9	1	3	90	0.00	30.118 
16:00	86.5	86.5	84.4	31	52.2	1	2	90	0.00	30.118 
16:05	86.7	86.7	85.2	35	55.7	0	3	90	0.00	30.118 
16:10	87.0	87.0	85.4	34	55.2	0	2	90	0.00	30.118 
16:15	87.2	87.2	85.4	33	54.6	0	2	90	0.00	30.111 
16:20	87.0	87.0	85.6	35	56.0	1	3	90	0.00	30.111 
16:25	87.0	87.0	85.4	34	55.2	0	2	90	0.00	30.111 
16:30	86.7	86.7	84.9	33	54.1	1	4	90	0.00	30.105 
16:35	87.0	87.0	85.2	33	54.4	0	1	90	0.00	30.105 
16:40	87.2	87.2	85.6	34	55.4	0	1	90	0.00	30.105 
16:45	86.7	86.7	84.9	33	54.1	1	3	90	0.00	30.106 
16:50	86.3	86.3	84.5	33	53.8	0	2	292	0.00	30.106 
16:55	86.3	86.3	84.8	35	55.4	0	1	292	0.00	30.106 
17:00	86.3	86.3	85.2	37	56.9	0	1	292	0.00	30.101 
17:05	86.5	86.5	84.4	31	52.2	0	1	292	0.00	30.101 
17:10	87.0	87.0	85.2	33	54.4	0	2	292	0.00	30.101 
17:15	87.2	87.2	85.4	33	54.6	0	2	292	0.00	30.098 
17:20	87.2	87.2	85.4	33	54.6	1	3	68	0.00	30.098 
17:25	87.0	87.0	85.2	33	54.4	0	2	68	0.00	30.098 
17:30	86.7	86.7	84.7	32	53.3	1	2	0	0.00	30.098 
17:35	86.5	86.5	84.7	33	53.9	0	1	0	0.00	30.098 
17:40	86.5	86.5	85.0	35	55.6	0	1	0	0.00	30.098 
17:45	86.5	86.5	84.7	33	53.9	0	2	0	0.00	30.089 
17:50	86.3	86.3	84.3	32	52.9	0	2	0	0.00	30.089 
17:55	86.1	86.1	84.8	36	56.0	0	1	0	0.00	30.089 
18:00	85.7	85.7	84.4	36	55.6	0	1	0	0.00	30.081 
18:05	85.3	85.3	83.6	34	53.7	0	1	0	0.00	30.081 
18:10	85.1	85.1	83.6	35	54.3	0	1	0	0.00	30.081 
18:15	84.7	84.7	83.5	37	55.5	0	1	0	0.00	30.084 
18:20	84.5	84.5	83.5	38	56.1	0	1	0	0.00	30.084 
18:25	84.3	84.3	83.1	37	55.2	0	2	0	0.00	30.084 
18:30	84.3	84.3	83.0	36	54.4	0	1	0	0.00	30.077 
18:35	84.1	84.1	82.9	37	55.0	0	2	0	0.00	30.077 
18:40	84.0	84.0	82.8	37	54.9	0	1	0	0.00	30.077 
18:45	84.0	84.0	83.3	40	57.0	0	1	0	0.00	30.072 
18:50	83.8	83.8	82.9	39	56.2	0	1	0	0.00	30.072 
18:55	83.6	83.6	82.8	39	56.0	0	1	0	0.00	30.072 
19:00	83.4	83.4	82.6	39	55.8	0	1	0	0.00	30.072 
19:05	83.2	83.2	82.4	39	55.6	0	1	0	0.00	30.072 
19:10	83.2	83.2	82.8	42	57.7	0	0	---	0.00	30.072 
19:15	82.8	82.8	82.2	40	56.0	0	1	0	0.00	30.055 
19:20	82.8	82.8	82.6	43	58.0	0	1	0	0.00	30.055 
19:25	82.6	82.6	82.4	43	57.8	0	1	0	0.00	30.055 
19:30	82.4	82.4	82.2	43	57.6	0	2	0	0.00	30.043 
19:35	82.4	82.4	82.0	42	57.0	1	3	22	0.00	30.043 
19:40	82.4	82.4	82.2	43	57.6	0	2	90	0.00	30.043 
19:45	82.4	82.4	82.2	43	57.6	1	2	90	0.00	30.032 
19:50	82.2	82.2	82.0	43	57.4	1	3	90	0.00	30.032 
19:55	82.0	82.0	81.9	44	57.9	1	2	90	0.00	30.032 
20:00	81.8	81.8	81.9	45	58.4	0	2	90	0.00	30.026 
20:05	81.6	81.6	81.7	45	58.2	0	2	90	0.00	30.026 
20:10	81.4	81.4	81.6	46	58.6	1	4	90	0.00	30.026 
20:15	81.2	81.2	81.5	46	58.4	1	4	112	0.00	30.009 
20:20	81.2	81.2	81.3	45	57.8	1	3	90	0.00	30.009 
20:25	81.2	81.2	81.3	45	57.8	2	5	90	0.00	30.009 
20:30	81.2	81.2	81.3	45	57.8	1	4	45	0.00	29.994 
20:35	81.2	81.2	81.3	45	57.8	1	3	45	0.00	29.994 
20:40	81.1	81.1	81.4	46	58.3	1	3	68	0.00	29.994 
20:45	81.1	81.1	81.4	46	58.3	1	3	68	0.00	29.992 
20:50	81.1	81.1	81.4	46	58.3	1	6	112	0.00	29.992 
20:55	80.9	80.9	81.1	45	57.5	0	2	135	0.00	29.992 
21:00	80.9	80.9	81.1	45	57.5	0	1	135	0.00	30.006 
21:05	80.7	80.7	80.9	45	57.4	0	2	135	0.00	30.006 
21:10	80.7	80.7	80.9	45	57.4	0	3	135	0.00	30.006 
21:15	80.7	80.7	80.9	45	57.4	0	2	135	0.00	30.003 
21:20	80.5	80.5	80.7	45	57.2	0	1	135	0.00	30.003 
21:25	80.5	80.5	80.7	45	57.2	0	2	135	0.00	30.003 
21:30	80.5	80.5	80.7	45	57.2	0	2	135	0.00	30.001 
21:35	80.3	80.3	80.6	45	57.0	1	2	135	0.00	30.001 
21:40	80.1	80.1	80.6	47	58.0	0	1	135	0.00	30.001 
21:45	79.8	79.8	80.4	47	57.8	0	1	135	0.00	30.002 
21:50	79.4	79.4	80.1	48	58.0	0	1	135	0.00	30.002 
21:55	79.2	79.2	80.0	48	57.8	0	1	135	0.00	30.002 
22:00	78.8	78.8	79.8	50	58.6	0	0	---	0.00	30.005 
22:05	78.6	78.6	79.7	50	58.4	0	1	135	0.00	30.005 
22:10	78.1	78.1	79.4	51	58.5	0	0	---	0.00	30.005 
22:15	77.7	77.7	79.1	51	58.1	0	0	---	0.00	30.019 
22:20	77.4	77.4	78.9	53	58.9	0	0	---	0.00	30.019 
22:25	77.2	77.2	78.8	54	59.2	0	0	---	0.00	30.019 
22:30	76.8	76.8	78.6	54	58.9	0	0	---	0.00	30.026 
22:35	76.5	76.5	78.4	54	58.6	0	0	---	0.00	30.026 
22:40	76.3	76.3	78.3	54	58.4	0	0	---	0.00	30.026 
22:45	76.0	76.0	78.1	55	58.6	0	0	---	0.00	30.037 
22:50	76.0	76.0	78.0	58	60.1	0	0	---	0.00	30.037 
22:55	75.8	75.8	77.9	57	59.5	0	0	---	0.00	30.037 
23:00	75.6	75.6	77.8	58	59.8	0	0	---	0.00	30.050 
23:05	75.6	75.6	77.8	58	59.8	0	0	---	0.00	30.050 
23:10	75.4	75.4	77.7	58	59.6	0	0	---	0.00	30.050 
23:15	75.3	75.3	77.6	58	59.5	0	0	---	0.00	30.061 
23:20	75.3	75.3	77.6	58	59.5	0	0	---	0.00	30.061 
23:25	75.1	75.1	77.4	60	60.2	0	0	---	0.00	30.061 
23:30	75.1	75.1	77.4	60	60.2	0	0	---	0.00	30.064 
23:35	74.9	74.9	74.9	59	59.6	0	0	---	0.00	30.064 
23:40	74.7	74.7	74.7	59	59.4	0	0	---	0.00	30.064 
23:45	74.9	74.9	74.9	59	59.6	0	0	---	0.00	30.067 
23:50	74.9	74.9	74.9	58	59.1	0	0	---	0.00	30.067 
23:55	74.9	74.9	74.9	59	59.6	0	0	---	0.00	30.067 

CoCoRaHS
IN-AL-39
A2 Web Hosting
Creative Commons License
GoDaddy
search engine by freefind advanced

loaded 2018-11-12 15:50:22 • last modified 2010-11-18 10:43:29
Privacy PolicyDisclaimer
• wx.awcolley.com is powered by PmWiki v.2002016 •
• all content (unless otherwise noted) © 2018 A W Colley